createdAt,value
2018-04-13T00:00:08.328Z,95047.93
2018-04-13T00:02:35.833Z,95047.32
2018-04-13T00:05:03.361Z,95052.17
2018-04-13T00:07:30.858Z,95059.54
2018-04-13T00:09:58.411Z,95057.89
2018-04-13T00:12:25.911Z,95073.00
2018-04-13T00:14:53.421Z,95069.22
2018-04-13T00:17:20.972Z,95068.92
2018-04-13T00:19:48.493Z,95068.69
2018-04-13T00:22:16.051Z,95069.70
2018-04-13T00:24:43.559Z,95075.11
2018-04-13T00:27:11.076Z,95082.19
2018-04-13T00:29:38.588Z,95083.44
2018-04-13T00:32:06.091Z,95080.38
2018-04-13T00:34:33.601Z,95081.17
2018-04-13T00:37:01.115Z,95090.80
2018-04-13T00:39:28.621Z,95085.83
2018-04-13T00:41:56.213Z,95079.92
2018-04-13T00:44:23.726Z,95079.63
2018-04-13T00:46:51.241Z,95065.45
2018-04-13T00:49:18.749Z,95076.00
2018-04-13T00:51:46.260Z,95075.16
2018-04-13T00:54:13.779Z,95078.81
2018-04-13T00:56:41.295Z,95101.89
2018-04-13T00:59:08.807Z,95084.41
2018-04-13T01:01:36.356Z,95080.44
2018-04-13T01:04:03.870Z,95090.49
2018-04-13T01:06:31.387Z,95086.58
2018-04-13T01:08:58.896Z,95083.48
2018-04-13T01:11:26.400Z,95083.59
2018-04-13T01:13:53.947Z,95080.49
2018-04-13T01:16:21.454Z,95084.10
2018-04-13T01:18:48.995Z,95084.02
2018-04-13T01:21:16.508Z,95092.47
2018-04-13T01:23:44.059Z,95081.53
2018-04-13T01:26:11.567Z,95047.92
2018-04-13T01:28:39.081Z,95077.34
2018-04-13T01:31:06.639Z,95075.64
2018-04-13T01:33:34.163Z,95067.60
2018-04-13T01:36:01.665Z,95065.22
2018-04-13T01:38:29.220Z,95066.38
2018-04-13T01:40:56.764Z,95069.98
2018-04-13T01:43:24.321Z,95078.73
2018-04-13T01:45:51.879Z,95080.03
2018-04-13T01:48:19.685Z,95079.94
2018-04-13T01:50:47.203Z,95082.78
2018-04-13T01:53:14.720Z,95081.01
2018-04-13T01:55:42.262Z,95087.48
2018-04-13T01:58:09.816Z,95081.83
2018-04-13T02:00:37.331Z,95090.86
2018-04-13T02:03:04.841Z,95103.17
2018-04-13T02:05:32.348Z,95101.70
2018-04-13T02:07:59.888Z,95102.03
2018-04-13T02:10:27.395Z,95087.66
2018-04-13T02:12:54.914Z,95079.88
2018-04-13T02:15:22.477Z,95078.15
2018-04-13T02:17:49.992Z,95078.11
2018-04-13T02:20:17.531Z,95085.11
2018-04-13T02:22:45.095Z,95088.71
2018-04-13T02:25:12.603Z,95076.03
2018-04-13T02:27:40.108Z,95082.11
2018-04-13T02:30:07.763Z,95087.33
2018-04-13T02:32:35.267Z,95084.50
2018-04-13T02:35:02.774Z,95080.66
2018-04-13T02:37:30.292Z,95091.77
2018-04-13T02:39:57.849Z,95097.92
2018-04-13T02:42:25.359Z,95092.34
2018-04-13T02:44:52.873Z,95111.34
2018-04-13T02:47:20.375Z,95120.23
2018-04-13T02:49:47.885Z,95113.88
2018-04-13T02:52:15.400Z,95109.80
2018-04-13T02:54:42.903Z,95118.75
2018-04-13T02:57:10.455Z,95122.39
2018-04-13T02:59:37.958Z,95118.58
2018-04-13T03:02:05.508Z,95118.03
2018-04-13T03:04:33.024Z,95115.16
2018-04-13T03:07:00.572Z,95124.38
2018-04-13T03:09:28.145Z,95117.57
2018-04-13T03:11:55.658Z,95120.30
2018-04-13T03:14:23.192Z,95120.05
2018-04-13T03:16:50.756Z,95121.41
2018-04-13T03:19:18.299Z,95124.51
2018-04-13T03:21:45.808Z,95119.55
2018-04-13T03:24:13.325Z,95124.04
2018-04-13T03:26:40.848Z,95117.27
2018-04-13T03:29:08.415Z,95119.52
2018-04-13T03:31:35.961Z,95127.23
2018-04-13T03:34:03.507Z,95128.98
2018-04-13T03:36:31.082Z,95137.47
2018-04-13T03:38:58.638Z,95131.94
2018-04-13T03:41:26.163Z,95146.03
2018-04-13T03:43:53.706Z,95154.48
2018-04-13T03:46:21.231Z,95158.92
2018-04-13T03:48:48.782Z,95153.33
2018-04-13T03:51:16.288Z,95141.33
2018-04-13T03:53:43.798Z,95148.36
2018-04-13T03:56:11.315Z,95141.13
2018-04-13T03:58:38.854Z,95159.33
2018-04-13T04:01:06.394Z,95157.88
2018-04-13T04:03:33.905Z,95163.81
2018-04-13T04:06:01.452Z,95165.81
2018-04-13T04:08:29.010Z,95159.47
2018-04-13T04:10:56.534Z,95159.61
2018-04-13T04:13:24.054Z,95157.52
2018-04-13T04:15:51.563Z,95156.87
2018-04-13T04:18:19.068Z,95163.93
2018-04-13T04:20:58.390Z,95167.12
2018-04-13T04:23:37.855Z,95173.08
2018-04-13T04:26:22.185Z,95176.81
2018-04-13T04:28:49.771Z,95179.80
2018-04-13T04:31:17.358Z,95174.66
2018-04-13T04:33:44.863Z,95183.05
2018-04-13T04:36:12.412Z,95174.56
2018-04-13T04:38:39.929Z,95199.33
2018-04-13T04:41:07.451Z,95200.04
2018-04-13T04:43:35.002Z,95200.22
2018-04-13T04:46:02.546Z,95199.83
2018-04-13T04:48:30.117Z,95203.12
2018-04-13T04:50:57.660Z,95201.85
2018-04-13T04:53:25.171Z,95206.39
2018-04-13T04:55:52.693Z,95221.94
2018-04-13T04:58:20.217Z,95223.78
2018-04-13T05:00:47.767Z,95222.86
2018-04-13T05:03:15.324Z,95222.69
2018-04-13T05:05:42.867Z,95222.20
2018-04-13T05:08:10.420Z,95232.41
2018-04-13T05:10:37.935Z,95231.20
2018-04-13T05:13:05.489Z,95218.31
2018-04-13T05:15:33.001Z,95233.56
2018-04-13T05:18:00.513Z,95236.02
2018-04-13T05:20:28.021Z,95238.70
2018-04-13T05:22:55.570Z,95234.59
2018-04-13T05:25:23.081Z,95213.59
2018-04-13T05:27:50.697Z,95235.94
2018-04-13T05:30:18.257Z,95235.86
2018-04-13T05:32:45.770Z,95239.94
2018-04-13T05:35:13.340Z,95242.63
2018-04-13T05:37:40.887Z,95247.50
2018-04-13T05:40:08.443Z,95243.53
2018-04-13T05:42:35.965Z,95256.39
2018-04-13T05:45:03.479Z,95246.81
2018-04-13T05:47:31.036Z,95253.13
2018-04-13T05:49:58.556Z,95254.93
2018-04-13T05:52:26.379Z,95262.19
2018-04-13T05:54:53.924Z,95266.28
2018-04-13T05:57:21.435Z,95259.62
2018-04-13T05:59:49.016Z,95254.28
2018-04-13T06:02:16.620Z,95249.62
2018-04-13T06:04:44.119Z,95256.48
2018-04-13T06:07:11.689Z,95241.41
2018-04-13T06:09:39.180Z,95265.16
2018-04-13T06:12:06.774Z,95223.73
2018-04-13T06:14:34.298Z,95272.08
2018-04-13T06:17:01.848Z,95270.34
2018-04-13T06:19:29.442Z,95270.51
2018-04-13T06:21:56.947Z,95197.08
2018-04-13T06:24:24.476Z,95278.39
2018-04-13T06:26:51.989Z,95281.86
2018-04-13T06:29:19.540Z,95279.53
2018-04-13T06:31:47.116Z,95286.92
2018-04-13T06:34:14.636Z,95291.56
2018-04-13T06:36:42.179Z,95295.37
2018-04-13T06:39:09.688Z,95292.75
2018-04-13T06:41:37.208Z,95296.00
2018-04-13T06:44:04.770Z,95301.13
2018-04-13T06:46:32.286Z,95299.79
2018-04-13T06:48:59.787Z,95290.56
2018-04-13T06:51:27.312Z,95298.77
2018-04-13T06:53:54.877Z,95294.49
2018-04-13T06:56:22.389Z,95303.58
2018-04-13T06:58:49.899Z,95303.00
2018-04-13T07:01:17.494Z,95297.16
2018-04-13T07:03:45.007Z,95295.89
2018-04-13T07:06:12.559Z,95293.64
2018-04-13T07:08:40.128Z,95295.12
2018-04-13T07:11:07.691Z,95299.52
2018-04-13T07:13:35.239Z,95302.52
2018-04-13T07:16:02.763Z,95298.37
2018-04-13T07:18:30.331Z,95294.36
2018-04-13T07:20:57.844Z,95294.78
2018-04-13T07:23:25.356Z,95295.25
2018-04-13T07:25:52.919Z,95307.13
2018-04-13T07:28:20.436Z,95294.50
2018-04-13T07:30:48.803Z,95303.53
2018-04-13T07:33:16.427Z,95303.22
2018-04-13T07:35:44.051Z,95296.46
2018-04-13T07:38:11.572Z,95297.67
2018-04-13T07:40:39.123Z,95289.45
2018-04-13T07:43:06.640Z,95286.63
2018-04-13T07:45:34.188Z,95295.04
2018-04-13T07:48:01.805Z,95287.92
2018-04-13T07:50:29.353Z,95294.08
2018-04-13T07:52:56.855Z,95285.98
2018-04-13T07:55:24.374Z,95291.56
2018-04-13T07:57:51.896Z,95290.59
2018-04-13T08:00:19.731Z,95294.05
2018-04-13T08:02:47.059Z,95296.25
2018-04-13T08:05:14.614Z,95281.02
2018-04-13T08:07:42.590Z,95276.17
2018-04-13T08:10:10.088Z,95289.66
2018-04-13T08:12:37.827Z,95289.53
2018-04-13T08:15:05.171Z,95283.83
2018-04-13T08:17:32.707Z,95288.83
2018-04-13T08:20:00.256Z,95285.56
2018-04-13T08:22:27.759Z,95283.64
2018-04-13T08:24:55.306Z,95285.05
2018-04-13T08:27:22.864Z,95280.64
2018-04-13T08:29:50.427Z,95289.48
2018-04-13T08:32:17.972Z,95283.90
2018-04-13T08:34:45.491Z,95289.89
2018-04-13T08:37:13.045Z,95280.41
2018-04-13T08:39:40.550Z,95278.05
2018-04-13T08:42:08.052Z,95284.56
2018-04-13T08:44:35.603Z,95278.90
2018-04-13T08:47:03.132Z,95273.92
2018-04-13T08:49:30.694Z,95272.22
2018-04-13T08:51:58.245Z,95268.54
2018-04-13T08:54:25.764Z,95267.47
2018-04-13T08:56:53.312Z,95269.95
2018-04-13T08:59:20.811Z,95269.67
2018-04-13T09:01:48.320Z,95263.75
2018-04-13T09:04:15.836Z,95271.22
2018-04-13T09:06:43.343Z,95261.88
2018-04-13T09:09:10.866Z,95272.17
2018-04-13T09:11:38.378Z,95274.30
2018-04-13T09:14:05.929Z,95274.80
2018-04-13T09:16:33.495Z,95275.20
2018-04-13T09:19:01.040Z,95272.94
2018-04-13T09:21:28.543Z,95267.87
2018-04-13T09:23:56.052Z,95266.30
2018-04-13T09:26:23.559Z,95262.73
2018-04-13T09:28:51.231Z,95261.59
2018-04-13T09:31:18.855Z,95253.95
2018-04-13T09:33:46.369Z,95250.92
2018-04-13T09:36:13.879Z,95240.16
2018-04-13T09:38:41.385Z,95244.44
2018-04-13T09:41:08.909Z,95224.77
2018-04-13T09:43:36.465Z,95241.77
2018-04-13T09:46:04.014Z,95224.81
2018-04-13T09:48:31.603Z,95234.51
2018-04-13T09:50:59.124Z,95240.73
2018-04-13T09:53:26.640Z,95234.22
2018-04-13T09:55:54.147Z,95233.47
2018-04-13T09:58:21.751Z,95236.22
2018-04-13T10:00:54.854Z,95228.40
2018-04-13T10:03:22.377Z,95234.77
2018-04-13T10:05:49.885Z,95244.23
2018-04-13T10:08:17.484Z,95239.98
2018-04-13T10:10:45.008Z,95210.78
2018-04-13T10:13:13.444Z,95223.84
2018-04-13T10:15:41.023Z,95234.06
2018-04-13T10:18:08.532Z,95230.33
2018-04-13T10:20:36.081Z,95233.88
2018-04-13T10:23:03.588Z,95218.72
2018-04-13T10:25:31.152Z,95215.85
2018-04-13T10:27:58.793Z,95220.75
2018-04-13T10:30:26.340Z,95211.54
2018-04-13T10:32:53.852Z,95222.31
2018-04-13T10:35:21.410Z,95213.31
2018-04-13T10:37:48.913Z,95213.94
2018-04-13T10:40:16.517Z,95206.03
2018-04-13T10:42:44.032Z,95210.53
2018-04-13T10:45:11.531Z,95209.59
2018-04-13T10:47:39.036Z,95207.08
2018-04-13T10:50:06.601Z,95207.17
2018-04-13T10:52:34.108Z,95202.73
2018-04-13T10:55:01.610Z,95210.91
2018-04-13T10:57:29.116Z,95206.89
2018-04-13T10:59:56.624Z,95208.48
2018-04-13T11:02:24.162Z,95184.75
2018-04-13T11:04:51.720Z,95203.33
2018-04-13T11:07:19.269Z,95202.84
2018-04-13T11:09:46.780Z,95202.59
2018-04-13T11:12:14.314Z,95193.66
2018-04-13T11:14:41.839Z,95190.15
2018-04-13T11:17:09.433Z,95202.31
2018-04-13T11:19:37.007Z,95194.56
2018-04-13T11:22:04.515Z,95205.13
2018-04-13T11:24:32.020Z,95200.39
2018-04-13T11:26:59.563Z,95195.08
2018-04-13T11:29:27.076Z,95190.09
2018-04-13T11:31:54.620Z,95187.08
2018-04-13T11:34:22.174Z,95190.94
2018-04-13T11:36:49.687Z,95185.36
2018-04-13T11:39:17.247Z,95166.56
2018-04-13T11:41:44.770Z,95178.68
2018-04-13T11:44:12.271Z,95183.37
2018-04-13T11:46:39.772Z,95178.45
2018-04-13T11:49:07.747Z,95174.64
2018-04-13T11:51:35.276Z,95176.53
2018-04-13T11:54:02.793Z,95174.16
2018-04-13T11:56:30.455Z,95169.42
2018-04-13T11:58:57.964Z,95169.06
2018-04-13T12:01:25.483Z,95170.58
2018-04-13T12:03:53.027Z,95160.42
2018-04-13T12:06:20.536Z,95168.48
2018-04-13T12:08:48.038Z,95171.22
2018-04-13T12:11:15.543Z,95156.36
2018-04-13T12:13:43.046Z,95158.47
2018-04-13T12:16:10.591Z,95155.42
2018-04-13T12:18:38.101Z,95157.17
2018-04-13T12:21:05.642Z,95159.19
2018-04-13T12:23:33.190Z,95156.86
2018-04-13T12:26:00.694Z,95148.06
2018-04-13T12:28:28.231Z,95147.85
2018-04-13T12:30:55.780Z,95148.97
2018-04-13T12:33:23.351Z,95138.05
2018-04-13T12:35:50.867Z,95140.69
2018-04-13T12:38:18.430Z,95123.86
2018-04-13T12:40:45.972Z,95131.39
2018-04-13T12:43:13.582Z,95136.41
2018-04-13T12:45:41.241Z,95126.24
2018-04-13T12:48:08.751Z,95121.64
2018-04-13T12:50:36.316Z,95125.08
2018-04-13T12:53:03.832Z,95127.79
2018-04-13T12:55:31.367Z,95130.63
2018-04-13T12:57:58.953Z,95120.09
2018-04-13T13:00:26.502Z,95111.72
2018-04-13T13:02:54.007Z,95105.95
2018-04-13T13:05:21.551Z,95112.75
2018-04-13T13:07:49.055Z,95104.56
2018-04-13T13:10:16.600Z,95102.03
2018-04-13T13:12:44.139Z,95110.55
2018-04-13T13:15:11.651Z,95108.22
2018-04-13T13:17:39.151Z,95111.92
2018-04-13T13:20:06.770Z,95105.56
2018-04-13T13:22:34.291Z,95105.30
2018-04-13T13:25:01.815Z,95100.56
2018-04-13T13:27:29.335Z,95104.33
2018-04-13T13:29:56.859Z,95105.42
2018-04-13T13:32:24.427Z,95094.59
2018-04-13T13:34:51.941Z,95096.88
2018-04-13T13:37:19.452Z,95098.03
2018-04-13T13:39:47.012Z,95095.42
2018-04-13T13:42:14.569Z,95097.66
2018-04-13T13:44:42.075Z,95092.39
2018-04-13T13:47:09.621Z,95095.46
2018-04-13T13:49:37.141Z,95092.16
2018-04-13T13:52:04.716Z,95092.80
2018-04-13T13:54:32.219Z,95097.27
2018-04-13T13:56:59.757Z,95084.50
2018-04-13T13:59:27.263Z,95093.28
2018-04-13T14:01:54.799Z,95093.15
2018-04-13T14:04:22.315Z,95086.17
2018-04-13T14:06:49.912Z,95080.56
2018-04-13T14:09:17.424Z,95086.38
2018-04-13T14:11:44.971Z,95095.73
2018-04-13T14:14:12.473Z,95096.74
2018-04-13T14:16:39.985Z,95096.90
2018-04-13T14:19:07.494Z,95102.46
2018-04-13T14:21:35.056Z,95110.45
2018-04-13T14:24:02.591Z,95104.52
2018-04-13T14:26:30.107Z,95114.38
2018-04-13T14:28:57.620Z,95113.17
2018-04-13T14:31:25.155Z,95103.86
2018-04-13T14:33:52.745Z,95115.66
2018-04-13T14:36:20.242Z,95119.88
2018-04-13T14:38:47.787Z,95129.09
2018-04-13T14:41:15.333Z,95112.24
2018-04-13T14:43:42.849Z,95116.45
2018-04-13T14:46:10.404Z,95118.04
2018-04-13T14:48:38.004Z,95111.67
2018-04-13T14:51:05.504Z,95107.61
2018-04-13T14:53:33.041Z,95121.92
2018-04-13T14:56:00.578Z,95127.91
2018-04-13T14:58:28.120Z,95132.28
2018-04-13T15:00:55.719Z,95127.23
2018-04-13T15:03:23.254Z,95125.47
2018-04-13T15:05:50.767Z,95125.86
2018-04-13T15:08:18.335Z,95137.66
2018-04-13T15:10:45.836Z,95126.20
2018-04-13T15:13:13.377Z,95138.80
2018-04-13T15:15:40.920Z,95133.40
2018-04-13T15:18:08.615Z,95127.12
2018-04-13T15:20:36.167Z,95156.34
2018-04-13T15:23:03.719Z,95161.02
2018-04-13T15:25:31.226Z,95150.09
2018-04-13T15:27:58.768Z,95144.53
2018-04-13T15:30:26.310Z,95147.36
2018-04-13T15:32:53.871Z,95153.47
2018-04-13T15:35:21.382Z,95154.48
2018-04-13T15:37:48.940Z,95152.13
2018-04-13T15:40:16.541Z,95149.75
2018-04-13T15:42:43.990Z,95149.75
2018-04-13T15:45:11.500Z,95149.81
2018-04-13T15:47:39.011Z,95143.75
2018-04-13T15:50:06.515Z,95130.72
2018-04-13T15:52:34.024Z,95150.99
2018-04-13T15:55:01.576Z,95145.80
2018-04-13T15:57:29.082Z,95156.47
2018-04-13T15:59:56.671Z,95158.06
2018-04-13T16:02:24.187Z,95160.40
2018-04-13T16:04:51.693Z,95172.78
2018-04-13T16:07:19.244Z,95177.05
2018-04-13T16:09:46.763Z,95179.66
2018-04-13T16:12:14.299Z,95185.17
2018-04-13T16:14:41.821Z,95176.31
2018-04-13T16:17:09.448Z,95174.45
2018-04-13T16:19:36.993Z,95190.38
2018-04-13T16:22:04.538Z,95204.91
2018-04-13T16:24:32.039Z,95213.04
2018-04-13T16:26:59.537Z,95220.77
2018-04-13T16:29:27.038Z,95225.09
2018-04-13T16:31:54.544Z,95216.13
2018-04-13T16:34:22.046Z,95215.13
2018-04-13T16:36:49.559Z,95219.58
2018-04-13T16:39:17.124Z,95213.89
2018-04-13T16:41:44.656Z,95232.20
2018-04-13T16:44:12.169Z,95209.27
2018-04-13T16:46:39.689Z,95207.78
2018-04-13T16:49:07.193Z,95236.77
2018-04-13T16:51:34.795Z,95216.66
2018-04-13T16:54:02.324Z,95227.63
2018-04-13T16:56:29.872Z,95200.06
2018-04-13T16:58:57.376Z,95226.05
2018-04-13T17:01:24.890Z,95224.75
2018-04-13T17:03:52.441Z,95237.19
2018-04-13T17:06:19.948Z,95247.02
2018-04-13T17:08:47.465Z,95248.14
2018-04-13T17:11:14.999Z,95264.64
2018-04-13T17:13:42.535Z,95268.59
2018-04-13T17:16:10.045Z,95263.28
2018-04-13T17:18:37.560Z,95275.95
2018-04-13T17:21:05.116Z,95272.85
2018-04-13T17:23:32.665Z,95276.58
2018-04-13T17:26:00.182Z,95286.47
2018-04-13T17:28:27.684Z,95284.58
2018-04-13T17:30:55.233Z,95295.50
2018-04-13T17:33:22.770Z,95298.67
2018-04-13T17:35:50.319Z,95306.08
2018-04-13T17:38:17.880Z,95320.42
2018-04-13T17:40:45.438Z,95319.66
2018-04-13T17:43:12.997Z,95318.12
2018-04-13T17:45:40.495Z,95328.20
2018-04-13T17:48:08.002Z,95315.56
2018-04-13T17:50:35.553Z,95335.33
2018-04-13T17:53:03.118Z,95338.48
2018-04-13T17:55:30.696Z,95346.91
2018-04-13T17:57:58.201Z,95348.07
2018-04-13T18:00:25.741Z,95358.11
2018-04-13T18:02:53.245Z,95364.44
2018-04-13T18:05:20.760Z,95358.73
2018-04-13T18:07:48.323Z,95362.28
2018-04-13T18:10:15.823Z,95362.67
2018-04-13T18:12:43.366Z,95360.38
2018-04-13T18:15:10.871Z,95350.59
2018-04-13T18:17:38.379Z,95364.31
2018-04-13T18:20:05.919Z,95362.55
2018-04-13T18:22:35.465Z,95370.57
2018-04-13T18:25:03.137Z,95365.66
2018-04-13T18:27:30.656Z,95382.90
2018-04-13T18:29:58.989Z,95383.48
2018-04-13T18:32:27.100Z,95381.73
2018-04-13T18:34:54.639Z,95384.26
2018-04-13T18:37:22.141Z,95396.62
2018-04-13T18:39:49.700Z,95399.16
2018-04-13T18:42:17.266Z,95407.38
2018-04-13T18:44:44.819Z,95413.08
2018-04-13T18:47:12.386Z,95416.59
2018-04-13T18:49:39.988Z,95427.95
2018-04-13T18:52:07.546Z,95430.68
2018-04-13T18:54:35.116Z,95433.63
2018-04-13T18:57:02.631Z,95434.80
2018-04-13T18:59:30.183Z,95441.47
2018-04-13T19:01:57.723Z,95438.93
2018-04-13T19:04:25.239Z,95445.76
2018-04-13T19:06:52.796Z,95447.91
2018-04-13T19:09:20.317Z,95448.30
2018-04-13T19:11:47.826Z,95426.73
2018-04-13T19:14:15.356Z,95443.60
2018-04-13T19:16:42.864Z,95442.81
2018-04-13T19:19:10.432Z,95453.00
2018-04-13T19:21:38.027Z,95456.11
2018-04-13T19:24:05.544Z,95462.59
2018-04-13T19:26:33.109Z,95465.71
2018-04-13T19:29:00.611Z,95468.27
2018-04-13T19:31:28.157Z,95471.19
2018-04-13T19:33:55.671Z,95470.61
2018-04-13T19:36:23.224Z,95467.09
2018-04-13T19:38:50.753Z,95459.78
2018-04-13T19:41:18.268Z,95471.50
2018-04-13T19:43:45.818Z,95480.47
2018-04-13T19:46:13.327Z,95468.68
2018-04-13T19:48:40.836Z,95481.42
2018-04-13T19:51:08.362Z,95490.61
2018-04-13T19:53:35.912Z,95495.48
2018-04-13T19:56:03.578Z,95499.58
2018-04-13T19:58:31.154Z,95491.95
2018-04-13T20:00:58.696Z,95498.42
2018-04-13T20:03:26.253Z,95497.03
2018-04-13T20:05:54.667Z,95489.19
2018-04-13T20:08:22.215Z,95495.17
2018-04-13T20:10:50.059Z,95496.14
2018-04-13T20:13:17.572Z,95498.48
2018-04-13T20:15:45.184Z,95495.36
2018-04-13T20:18:12.703Z,95495.79
2018-04-13T20:20:40.579Z,95495.03
2018-04-13T20:23:08.145Z,95498.22
2018-04-13T20:25:35.668Z,95503.34
2018-04-13T20:28:03.199Z,95503.02
2018-04-13T20:30:30.731Z,95504.00
2018-04-13T20:32:58.230Z,95508.53
2018-04-13T20:35:25.773Z,95508.66
2018-04-13T20:37:53.287Z,95519.43
2018-04-13T20:40:20.857Z,95522.16
2018-04-13T20:42:48.415Z,95515.45
2018-04-13T20:45:15.927Z,95519.37
2018-04-13T20:47:43.487Z,95527.58
2018-04-13T20:50:11.027Z,95531.84
2018-04-13T20:52:38.535Z,95540.44
2018-04-13T20:55:06.048Z,95534.52
2018-04-13T20:57:33.565Z,95533.69
2018-04-13T21:00:01.163Z,95515.78
2018-04-13T21:02:28.735Z,95534.76
2018-04-13T21:04:56.982Z,95527.17
2018-04-13T21:07:24.528Z,95539.52
2018-04-13T21:09:52.064Z,95539.86
2018-04-13T21:12:19.574Z,95537.75
2018-04-13T21:14:47.131Z,95542.52
2018-04-13T21:17:14.675Z,95537.78
2018-04-13T21:19:42.178Z,95540.66
2018-04-13T21:22:09.684Z,95546.53
2018-04-13T21:24:37.243Z,95539.77
2018-04-13T21:27:04.805Z,95542.44
2018-04-13T21:29:32.316Z,95544.19
2018-04-13T21:31:59.870Z,95546.05
2018-04-13T21:34:27.380Z,95550.14
2018-04-13T21:36:54.887Z,95545.98
2018-04-13T21:39:22.395Z,95548.87
2018-04-13T21:41:49.905Z,95556.47
2018-04-13T21:44:17.450Z,95564.03
2018-04-13T21:46:44.959Z,95565.81
2018-04-13T21:49:12.559Z,95572.53
2018-04-13T21:51:40.063Z,95572.47
2018-04-13T21:54:07.608Z,95568.14
2018-04-13T21:56:35.135Z,95568.52
2018-04-13T21:59:02.631Z,95573.92
2018-04-13T22:01:30.176Z,95569.09
2018-04-13T22:03:57.728Z,95579.44
2018-04-13T22:06:25.288Z,95570.68
2018-04-13T22:08:52.836Z,95577.14
2018-04-13T22:11:20.348Z,95576.41
2018-04-13T22:13:47.928Z,95573.14
2018-04-13T22:16:15.432Z,95572.05
2018-04-13T22:18:42.944Z,95573.17
2018-04-13T22:21:10.463Z,95577.27
2018-04-13T22:23:37.970Z,95576.06
2018-04-13T22:26:05.523Z,95583.86
2018-04-13T22:28:33.031Z,95587.04
2018-04-13T22:31:00.666Z,95583.55
2018-04-13T22:33:28.172Z,95585.78
2018-04-13T22:35:55.727Z,95591.58
2018-04-13T22:38:23.231Z,95586.50
2018-04-13T22:40:50.792Z,95595.78
2018-04-13T22:43:18.295Z,95591.94
2018-04-13T22:45:45.798Z,95601.70
2018-04-13T22:48:13.318Z,95602.22
2018-04-13T22:50:40.868Z,95603.05
2018-04-13T22:53:08.412Z,95607.67
2018-04-13T22:55:35.919Z,95601.32
2018-04-13T22:58:03.508Z,95603.26
2018-04-13T23:00:31.061Z,95602.11
2018-04-13T23:02:58.608Z,95607.20
2018-04-13T23:05:26.117Z,95610.33
2018-04-13T23:07:53.676Z,95609.80
2018-04-13T23:10:21.218Z,95610.97
2018-04-13T23:12:48.718Z,95613.20
2018-04-13T23:15:16.278Z,95614.23
2018-04-13T23:17:43.798Z,95614.45
2018-04-13T23:20:11.353Z,95610.94
2018-04-13T23:22:38.858Z,95619.22
2018-04-13T23:25:06.420Z,95626.63
2018-04-13T23:27:33.926Z,95629.19
2018-04-13T23:30:01.501Z,95630.81
2018-04-13T23:32:29.054Z,95634.30
2018-04-13T23:34:56.567Z,95629.62
2018-04-13T23:37:24.122Z,95629.38
2018-04-13T23:39:51.633Z,95634.61
2018-04-13T23:42:19.193Z,95627.12
2018-04-13T23:44:46.708Z,95633.61
2018-04-13T23:47:14.299Z,95630.88
2018-04-13T23:49:41.811Z,95625.31
2018-04-13T23:52:09.321Z,95634.00
2018-04-13T23:54:36.832Z,95635.41
2018-04-13T23:57:04.336Z,95643.84
2018-04-13T23:59:31.883Z,95632.54
